Time;durP1;ratioP1;P1;durP2;ratioP2;P2;SDS_P1;SDS_P2;PMS_P1;PMS_P2;Temp;Humidity;BMP_temperature;BMP_pressure;BME280_temperature;BME280_humidity;BME280_pressure;Samples;Min_cycle;Max_cycle;Signal;HPM_P1;HPM_P2
2022/10/14 00:01:56;;;;;;;25.80;23.23;;;;;;;;;;1845044;75;26205;-74
2022/10/14 00:04:25;;;;;;;26.03;22.63;;;;;;;;;;1852479;76;26196;-74
2022/10/14 00:06:53;;;;;;;25.13;22.63;;;;;;;;;;1930476;74;26269;-74
2022/10/14 00:09:22;;;;;;;25.47;22.53;;;;;;;;;;1896199;74;26207;-73
2022/10/14 00:11:51;;;;;;;26.10;22.83;;;;;;;;;;1908173;75;26248;-74
2022/10/14 00:14:20;;;;;;;26.40;22.77;;;;;;;;;;1874376;75;26735;-74
2022/10/14 00:16:50;;;;;;;25.87;23.20;;;;;;;;;;1849260;75;26191;-74
2022/10/14 00:19:19;;;;;;;25.20;22.53;;;;;;;;;;1908149;75;26217;-74
2022/10/14 00:21:48;;;;;;;25.83;23.07;;;;;;;;;;1908015;75;26308;-74
2022/10/14 00:24:17;;;;;;;25.90;23.10;;;;;;;;;;1848394;75;26206;-74
2022/10/14 00:26:47;;;;;;;32.07;23.83;;;;;;;;;;1875074;75;26339;-74
2022/10/14 00:29:17;;;;;;;26.30;23.67;;;;;;;;;;1908212;75;26202;-73
2022/10/14 00:31:46;;;;;;;27.37;24.00;;;;;;;;;;1907145;75;26202;-74
2022/10/14 00:34:15;;;;;;;30.07;24.17;;;;;;;;;;1886853;76;26262;-74
2022/10/14 00:36:44;;;;;;;27.93;23.73;;;;;;;;;;1868762;75;26318;-74
2022/10/14 00:39:14;;;;;;;27.77;23.70;;;;;;;;;;1903720;75;26225;-74
2022/10/14 00:41:44;;;;;;;27.00;24.20;;;;;;;;;;1907067;75;26319;-74
2022/10/14 00:44:32;;;;;;;25.80;23.17;;;;;;;;;;1905162;75;26311;-74
2022/10/14 00:47:00;;;;;;;25.87;23.03;;;;;;;;;;1824094;76;26702;-74
2022/10/14 00:49:30;;;;;;;25.07;22.60;;;;;;;;;;1893333;74;26360;-74
2022/10/14 00:52:00;;;;;;;27.37;24.47;;;;;;;;;;1867385;74;26244;-74
2022/10/14 00:54:31;;;;;;;25.93;23.17;;;;;;;;;;1905871;75;26914;-74
2022/10/14 00:57:00;;;;;;;26.43;23.10;;;;;;;;;;1905354;75;26238;-74
2022/10/14 00:59:29;;;;;;;26.87;23.87;;;;;;;;;;1905827;75;26655;-74
2022/10/14 01:01:57;;;;;;;26.67;23.83;;;;;;;;;;1904600;75;26844;-74
2022/10/14 01:04:26;;;;;;;26.37;23.50;;;;;;;;;;1905201;75;26258;-74
2022/10/14 01:06:58;;;;;;;26.50;23.60;;;;;;;;;;1874212;75;26369;-74
2022/10/14 01:09:29;;;;;;;26.87;24.07;;;;;;;;;;1907472;75;26209;-74
2022/10/14 01:12:00;;;;;;;25.70;23.20;;;;;;;;;;1886529;76;26998;-74
2022/10/14 01:14:31;;;;;;;25.67;23.00;;;;;;;;;;1930325;74;26261;-74
2022/10/14 01:17:01;;;;;;;25.70;23.03;;;;;;;;;;1896495;74;26246;-74
2022/10/14 01:19:34;;;;;;;26.23;23.47;;;;;;;;;;1896769;74;26207;-74
2022/10/14 01:22:05;;;;;;;26.50;23.13;;;;;;;;;;1926679;74;26263;-74
2022/10/14 01:24:42;;;;;;;27.50;23.27;;;;;;;;;;1896679;74;26202;-74
2022/10/14 01:27:22;;;;;;;25.33;22.67;;;;;;;;;;1907608;75;27084;-74
2022/10/14 01:30:10;;;;;;;27.97;23.27;;;;;;;;;;1872471;75;26826;-74
2022/10/14 01:32:41;;;;;;;27.37;22.87;;;;;;;;;;1845904;75;26407;-74
2022/10/14 01:35:12;;;;;;;24.90;22.30;;;;;;;;;;1905336;75;26817;-74
2022/10/14 01:37:43;;;;;;;30.30;23.73;;;;;;;;;;1905496;75;26324;-74
2022/10/14 01:40:13;;;;;;;24.23;21.83;;;;;;;;;;1905479;75;26261;-74
2022/10/14 01:42:43;;;;;;;26.67;24.03;;;;;;;;;;1905498;75;26339;-74
2022/10/14 01:45:13;;;;;;;26.60;23.77;;;;;;;;;;1904358;75;26249;-74
2022/10/14 01:47:42;;;;;;;31.47;24.10;;;;;;;;;;1871614;75;26354;-74
2022/10/14 01:50:13;;;;;;;25.80;23.03;;;;;;;;;;1845915;75;26288;-74
2022/10/14 01:52:43;;;;;;;27.07;23.10;;;;;;;;;;1884355;76;26252;-74
2022/10/14 01:55:14;;;;;;;27.70;23.10;;;;;;;;;;1927739;74;26805;-74
2022/10/14 01:57:43;;;;;;;24.73;22.33;;;;;;;;;;1893412;74;26433;-74
2022/10/14 02:00:14;;;;;;;29.23;23.83;;;;;;;;;;1848287;75;26338;-74
2022/10/14 02:02:44;;;;;;;26.00;23.27;;;;;;;;;;1875640;75;26195;-74
2022/10/14 02:05:15;;;;;;;25.67;22.73;;;;;;;;;;1942466;74;26187;-74
2022/10/14 02:07:46;;;;;;;27.53;23.43;;;;;;;;;;1942393;74;26183;-74
2022/10/14 02:10:16;;;;;;;25.60;23.00;;;;;;;;;;1897444;75;26199;-74
2022/10/14 02:12:46;;;;;;;28.87;23.83;;;;;;;;;;1908974;75;26210;-74
2022/10/14 02:15:17;;;;;;;27.43;22.63;;;;;;;;;;1882044;75;26243;-74
2022/10/14 02:17:49;;;;;;;27.30;24.00;;;;;;;;;;1913252;75;26212;-74
2022/10/14 02:20:21;;;;;;;26.27;23.67;;;;;;;;;;1880362;75;26274;-74
2022/10/14 02:22:51;;;;;;;26.07;23.43;;;;;;;;;;1907617;75;26253;-73
2022/10/14 02:25:21;;;;;;;28.33;25.47;;;;;;;;;;1907324;75;26267;-74
2022/10/14 02:27:51;;;;;;;26.77;24.03;;;;;;;;;;1886810;76;26272;-74
2022/10/14 02:30:20;;;;;;;26.60;23.80;;;;;;;;;;1933969;74;26238;-74
2022/10/14 02:32:49;;;;;;;26.13;22.83;;;;;;;;;;1888339;74;26308;-74
2022/10/14 02:35:20;;;;;;;25.87;23.30;;;;;;;;;;1923481;74;26594;-74
2022/10/14 02:37:49;;;;;;;27.87;24.07;;;;;;;;;;1907934;75;26199;-73
2022/10/14 02:40:20;;;;;;;26.63;23.00;;;;;;;;;;1875459;75;26215;-74
2022/10/14 02:42:49;;;;;;;30.30;24.83;;;;;;;;;;1907874;75;26193;-74
2022/10/14 02:45:18;;;;;;;30.30;24.07;;;;;;;;;;1874780;75;26252;-74
2022/10/14 02:47:46;;;;;;;28.70;23.97;;;;;;;;;;1907920;75;26252;-73
2022/10/14 02:50:17;;;;;;;27.70;24.70;;;;;;;;;;1874415;75;26339;-74
2022/10/14 02:52:46;;;;;;;30.00;23.87;;;;;;;;;;1907711;75;26248;-73
2022/10/14 02:55:15;;;;;;;27.47;24.27;;;;;;;;;;1874709;75;26210;-74
2022/10/14 02:57:44;;;;;;;30.23;24.03;;;;;;;;;;1907954;75;26664;-74
2022/10/14 03:00:14;;;;;;;27.00;24.23;;;;;;;;;;1907911;75;26234;-73
2022/10/14 03:02:43;;;;;;;27.13;23.77;;;;;;;;;;1907884;75;26195;-74
2022/10/14 03:05:12;;;;;;;31.40;24.20;;;;;;;;;;1874937;75;26248;-73
2022/10/14 03:07:41;;;;;;;31.57;24.47;;;;;;;;;;1907272;75;26686;-74
2022/10/14 03:10:10;;;;;;;31.00;23.67;;;;;;;;;;1885053;76;26314;-76
2022/10/14 03:12:39;;;;;;;27.20;23.73;;;;;;;;;;1931404;74;26290;-76
2022/10/14 03:15:09;;;;;;;31.70;24.87;;;;;;;;;;1899842;74;26235;-76
2022/10/14 03:17:38;;;;;;;28.47;23.90;;;;;;;;;;1933765;74;26684;-76
2022/10/14 03:20:09;;;;;;;27.57;24.53;;;;;;;;;;1933845;74;26289;-76
2022/10/14 03:22:38;;;;;;;31.83;24.23;;;;;;;;;;1902548;74;26337;-76
2022/10/14 03:25:07;;;;;;;28.33;23.47;;;;;;;;;;1934042;74;26183;-76
2022/10/14 03:27:36;;;;;;;26.27;23.37;;;;;;;;;;1902586;74;26230;-76
2022/10/14 03:30:06;;;;;;;28.50;23.77;;;;;;;;;;1934038;74;26176;-76
2022/10/14 03:32:34;;;;;;;29.30;24.07;;;;;;;;;;1902468;74;26187;-76
2022/10/14 03:35:03;;;;;;;26.93;23.17;;;;;;;;;;1897656;75;27156;-76
2022/10/14 03:37:33;;;;;;;26.90;23.57;;;;;;;;;;1888882;75;27005;-76
2022/10/14 03:40:02;;;;;;;29.63;24.37;;;;;;;;;;1942760;74;26249;-76
2022/10/14 03:42:31;;;;;;;28.77;23.50;;;;;;;;;;1942768;74;26179;-76
2022/10/14 03:44:59;;;;;;;30.13;24.40;;;;;;;;;;1942709;74;26245;-76
2022/10/14 03:47:28;;;;;;;26.83;23.80;;;;;;;;;;1870629;74;26201;-76
2022/10/14 03:49:57;;;;;;;31.20;24.27;;;;;;;;;;1930281;74;26253;-77
2022/10/14 03:52:25;;;;;;;26.80;23.27;;;;;;;;;;1897290;74;26340;-76
2022/10/14 03:54:54;;;;;;;32.33;24.53;;;;;;;;;;1942614;74;26188;-76
2022/10/14 03:57:23;;;;;;;26.57;23.70;;;;;;;;;;1942466;74;26188;-76
2022/10/14 03:59:52;;;;;;;27.60;23.50;;;;;;;;;;1942680;74;26183;-76
2022/10/14 04:02:20;;;;;;;27.00;24.13;;;;;;;;;;1820950;72;613207;-77
2022/10/14 04:04:49;;;;;;;27.97;23.17;;;;;;;;;;1851753;77;26220;-76
2022/10/14 04:07:17;;;;;;;27.03;24.10;;;;;;;;;;1821104;77;26217;-76
2022/10/14 04:09:46;;;;;;;33.40;24.83;;;;;;;;;;1791128;79;26316;-76
2022/10/14 04:12:15;;;;;;;26.73;24.07;;;;;;;;;;1831757;78;26311;-76
2022/10/14 04:14:44;;;;;;;26.43;23.83;;;;;;;;;;1831662;78;27043;-77
2022/10/14 04:17:13;;;;;;;29.53;24.90;;;;;;;;;;1831683;78;26923;-76
2022/10/14 04:19:42;;;;;;;26.57;23.83;;;;;;;;;;1831864;78;26817;-76
2022/10/14 04:22:10;;;;;;;27.30;24.50;;;;;;;;;;1815846;78;26325;-76
2022/10/14 04:24:41;;;;;;;28.47;24.73;;;;;;;;;;1831749;78;26265;-76
2022/10/14 04:27:09;;;;;;;27.30;24.40;;;;;;;;;;1831785;78;26230;-76
2022/10/14 04:29:38;;;;;;;31.63;26.13;;;;;;;;;;1816002;79;26219;-76
2022/10/14 04:32:07;;;;;;;28.33;24.27;;;;;;;;;;1831705;78;26218;-76
2022/10/14 04:34:35;;;;;;;26.37;23.27;;;;;;;;;;1803874;78;26289;-76
2022/10/14 04:37:03;;;;;;;31.17;25.17;;;;;;;;;;1803891;78;27051;-76
2022/10/14 04:39:33;;;;;;;30.47;24.83;;;;;;;;;;1779340;78;27014;-76
2022/10/14 04:42:01;;;;;;;29.10;25.57;;;;;;;;;;1831783;78;26245;-76
2022/10/14 04:44:29;;;;;;;28.47;25.30;;;;;;;;;;1803201;78;26813;-76
2022/10/14 04:46:58;;;;;;;35.00;26.63;;;;;;;;;;1791123;79;26224;-76
2022/10/14 04:49:27;;;;;;;30.37;26.10;;;;;;;;;;1766200;79;26287;-76
2022/10/14 04:51:56;;;;;;;33.30;27.90;;;;;;;;;;1831608;78;26256;-76
2022/10/14 04:54:24;;;;;;;34.57;28.43;;;;;;;;;;1779540;78;26501;-75
2022/10/14 04:56:53;;;;;;;34.63;27.80;;;;;;;;;;1803767;78;26319;-76
2022/10/14 04:59:23;;;;;;;31.77;27.97;;;;;;;;;;1831886;78;26221;-76
2022/10/14 05:01:51;;;;;;;30.63;27.10;;;;;;;;;;1830313;78;26273;-76
2022/10/14 05:04:20;;;;;;;33.17;27.90;;;;;;;;;;1800766;78;26278;-76
2022/10/14 05:06:48;;;;;;;33.60;28.53;;;;;;;;;;1829449;78;26274;-76
2022/10/14 05:09:18;;;;;;;31.43;28.07;;;;;;;;;;1800446;78;26726;-76
2022/10/14 05:11:47;;;;;;;37.27;29.33;;;;;;;;;;1829457;78;26262;-76
2022/10/14 05:14:16;;;;;;;36.80;29.23;;;;;;;;;;1831890;78;26210;-76
2022/10/14 05:16:45;;;;;;;33.97;28.87;;;;;;;;;;1801085;78;26436;-76
2022/10/14 05:19:14;;;;;;;32.70;28.20;;;;;;;;;;1829448;78;26783;-76
2022/10/14 05:21:42;;;;;;;33.13;29.50;;;;;;;;;;1776682;78;26258;-76
2022/10/14 05:24:12;;;;;;;34.57;27.87;;;;;;;;;;1801156;78;26305;-76
2022/10/14 05:26:40;;;;;;;30.80;26.87;;;;;;;;;;1800976;78;26258;-77
2022/10/14 05:29:09;;;;;;;32.00;27.40;;;;;;;;;;1800289;78;26362;-76
2022/10/14 05:31:38;;;;;;;31.70;27.97;;;;;;;;;;1829235;78;26266;-76
2022/10/14 05:34:06;;;;;;;33.33;29.13;;;;;;;;;;1829381;78;26281;-77
2022/10/14 05:36:36;;;;;;;32.20;27.70;;;;;;;;;;1800462;78;26512;-76
2022/10/14 05:39:10;;;;;;;38.83;28.27;;;;;;;;;;1801031;78;26858;-77
2022/10/14 05:41:39;;;;;;;39.33;29.67;;;;;;;;;;1831815;78;26234;-77
2022/10/14 05:44:10;;;;;;;33.33;26.73;;;;;;;;;;1803243;78;26272;-77
2022/10/14 05:46:38;;;;;;;37.33;28.27;;;;;;;;;;1803064;78;26261;-78
2022/10/14 05:49:10;;;;;;;37.57;29.20;;;;;;;;;;1813079;78;26382;-77
2022/10/14 05:51:38;;;;;;;38.50;28.43;;;;;;;;;;1829173;78;26273;-77
2022/10/14 05:54:07;;;;;;;38.20;28.90;;;;;;;;;;1828975;78;26831;-77
2022/10/14 05:56:36;;;;;;;35.30;28.43;;;;;;;;;;1801176;78;26741;-77
2022/10/14 05:59:05;;;;;;;37.00;28.63;;;;;;;;;;1813079;79;26275;-78
2022/10/14 06:01:35;;;;;;;35.70;28.80;;;;;;;;;;1822049;77;26569;-78
2022/10/14 06:04:05;;;;;;;35.40;28.60;;;;;;;;;;1816271;77;26885;-78
2022/10/14 06:06:33;;;;;;;34.80;27.97;;;;;;;;;;1788896;79;26375;-78
2022/10/14 06:09:02;;;;;;;31.97;27.30;;;;;;;;;;1788762;79;26267;-77
2022/10/14 06:11:31;;;;;;;32.57;28.37;;;;;;;;;;1829690;78;26265;-77
2022/10/14 06:14:00;;;;;;;34.37;26.87;;;;;;;;;;1801020;78;26323;-77
2022/10/14 06:16:29;;;;;;;37.00;27.67;;;;;;;;;;1829305;78;26539;-79
2022/10/14 06:18:58;;;;;;;30.37;26.03;;;;;;;;;;1800817;78;26355;-78
2022/10/14 06:21:27;;;;;;;35.33;27.20;;;;;;;;;;1829396;78;26367;-76
2022/10/14 06:23:58;;;;;;;31.83;25.77;;;;;;;;;;1788462;79;26327;-76
2022/10/14 06:26:27;;;;;;;31.10;25.90;;;;;;;;;;1816597;77;26345;-76
2022/10/14 06:28:56;;;;;;;34.13;25.63;;;;;;;;;;1832032;78;26280;-76
2022/10/14 06:31:26;;;;;;;29.83;25.67;;;;;;;;;;1801848;78;26650;-76
2022/10/14 06:33:55;;;;;;;29.07;24.73;;;;;;;;;;1832081;78;26230;-76
2022/10/14 06:36:23;;;;;;;28.80;25.83;;;;;;;;;;1803816;78;26222;-76
2022/10/14 06:38:53;;;;;;;30.60;25.00;;;;;;;;;;1803691;78;26273;-76
2022/10/14 06:41:21;;;;;;;28.73;24.80;;;;;;;;;;1829586;78;26742;-77
2022/10/14 06:43:50;;;;;;;30.20;24.73;;;;;;;;;;1801395;78;26266;-77
2022/10/14 06:46:20;;;;;;;32.63;26.20;;;;;;;;;;1829717;78;26262;-77
2022/10/14 06:48:49;;;;;;;31.50;25.87;;;;;;;;;;1829847;78;26273;-77
2022/10/14 06:51:18;;;;;;;29.70;25.00;;;;;;;;;;1829895;78;26504;-78
2022/10/14 06:53:48;;;;;;;27.80;24.40;;;;;;;;;;1814082;79;26263;-82
2022/10/14 06:56:18;;;;;;;26.50;22.80;;;;;;;;;;1830290;78;26463;-78
2022/10/14 06:58:46;;;;;;;30.23;23.60;;;;;;;;;;1830150;78;26250;-79
2022/10/14 07:01:14;;;;;;;28.93;25.00;;;;;;;;;;1830251;78;26268;-81
2022/10/14 07:03:43;;;;;;;25.27;22.40;;;;;;;;;;1801372;78;26266;-78
2022/10/14 07:06:11;;;;;;;29.50;24.00;;;;;;;;;;1829811;78;26265;-77
2022/10/14 07:08:40;;;;;;;26.60;23.43;;;;;;;;;;1830069;78;26868;-78
2022/10/14 07:11:09;;;;;;;28.23;23.63;;;;;;;;;;1801075;78;26707;-78
2022/10/14 07:13:38;;;;;;;26.33;23.47;;;;;;;;;;1830020;78;26546;-78
2022/10/14 07:16:07;;;;;;;27.07;24.10;;;;;;;;;;1829642;78;26269;-78
2022/10/14 07:18:35;;;;;;;27.90;24.73;;;;;;;;;;1813719;79;26274;-77
2022/10/14 07:21:05;;;;;;;25.73;23.33;;;;;;;;;;1829897;78;26249;-77
2022/10/14 07:23:34;;;;;;;27.20;24.17;;;;;;;;;;1801066;78;26278;-77
2022/10/14 07:26:02;;;;;;;27.53;24.43;;;;;;;;;;1830094;78;26313;-76
2022/10/14 07:28:32;;;;;;;27.23;24.27;;;;;;;;;;1800850;78;26289;-76
2022/10/14 07:31:02;;;;;;;26.33;23.90;;;;;;;;;;1829587;78;26340;-76
2022/10/14 07:33:31;;;;;;;28.77;25.67;;;;;;;;;;1801376;78;26298;-76
2022/10/14 07:36:01;;;;;;;28.57;25.63;;;;;;;;;;1829745;78;26269;-76
2022/10/14 07:38:30;;;;;;;29.17;26.17;;;;;;;;;;1829904;78;26254;-76
2022/10/14 07:41:00;;;;;;;27.90;25.17;;;;;;;;;;1800843;78;26261;-76
2022/10/14 07:43:28;;;;;;;30.17;25.80;;;;;;;;;;1803188;78;26762;-76
2022/10/14 07:46:01;;;;;;;29.47;25.43;;;;;;;;;;1748638;78;26230;-76
2022/10/14 07:48:30;;;;;;;28.63;25.93;;;;;;;;;;1831955;78;26237;-76
2022/10/14 07:51:00;;;;;;;27.63;24.97;;;;;;;;;;1804144;78;26749;-76
2022/10/14 07:53:28;;;;;;;29.77;26.53;;;;;;;;;;1831979;78;26201;-76
2022/10/14 07:55:58;;;;;;;28.23;25.43;;;;;;;;;;1831731;78;26218;-76
2022/10/14 07:58:28;;;;;;;30.07;27.00;;;;;;;;;;1803710;78;27051;-76
2022/10/14 08:00:58;;;;;;;32.53;29.40;;;;;;;;;;1831780;78;26641;-76
2022/10/14 08:03:27;;;;;;;34.60;31.43;;;;;;;;;;1831635;78;26242;-76
2022/10/14 08:05:59;;;;;;;35.20;31.90;;;;;;;;;;1790652;79;26339;-76
2022/10/14 08:08:28;;;;;;;29.97;26.90;;;;;;;;;;1831998;78;26697;-76
2022/10/14 08:11:04;;;;;;;27.93;25.27;;;;;;;;;;1803866;78;26214;-76
2022/10/14 08:13:33;;;;;;;26.67;24.20;;;;;;;;;;1803460;78;26512;-76
2022/10/14 08:16:01;;;;;;;25.37;22.97;;;;;;;;;;1803322;78;26222;-76
2022/10/14 08:18:30;;;;;;;24.90;22.60;;;;;;;;;;1803292;78;26281;-76
2022/10/14 08:20:59;;;;;;;24.27;22.17;;;;;;;;;;1803783;78;27051;-76
2022/10/14 08:23:29;;;;;;;23.13;21.37;;;;;;;;;;1831882;78;26761;-76
2022/10/14 08:25:57;;;;;;;22.40;20.63;;;;;;;;;;1831698;78;26320;-76
2022/10/14 08:28:26;;;;;;;22.00;20.07;;;;;;;;;;1803396;78;26226;-76
2022/10/14 08:30:54;;;;;;;21.33;19.70;;;;;;;;;;1831780;78;26321;-76
2022/10/14 08:33:23;;;;;;;22.13;20.33;;;;;;;;;;1831863;78;26361;-76
2022/10/14 08:35:51;;;;;;;22.60;20.73;;;;;;;;;;1803572;78;26312;-76
2022/10/14 08:38:23;;;;;;;21.97;20.27;;;;;;;;;;1804118;78;26230;-76
2022/10/14 08:40:53;;;;;;;21.77;20.07;;;;;;;;;;1804205;78;26303;-76
2022/10/14 08:43:23;;;;;;;22.63;20.63;;;;;;;;;;1779507;78;26296;-75
2022/10/14 08:45:53;;;;;;;21.23;19.43;;;;;;;;;;1803723;78;26273;-76
2022/10/14 08:48:24;;;;;;;21.50;19.70;;;;;;;;;;1803541;78;26276;-76
2022/10/14 08:50:54;;;;;;;21.23;19.37;;;;;;;;;;1831579;78;26806;-76
2022/10/14 08:53:27;;;;;;;20.50;18.87;;;;;;;;;;1803332;78;26222;-76
2022/10/14 08:55:56;;;;;;;20.77;19.17;;;;;;;;;;1831385;78;26229;-79
2022/10/14 08:58:27;;;;;;;21.37;19.67;;;;;;;;;;1803313;78;26214;-80
2022/10/14 09:00:56;;;;;;;21.20;19.50;;;;;;;;;;1831388;78;26295;-80
2022/10/14 09:03:31;;;;;;;21.53;19.73;;;;;;;;;;1802843;78;26288;-80
2022/10/14 09:05:59;;;;;;;21.37;19.70;;;;;;;;;;1803016;78;26297;-81
2022/10/14 09:08:29;;;;;;;21.20;19.40;;;;;;;;;;1831933;78;26297;-80
2022/10/14 09:10:59;;;;;;;20.47;18.87;;;;;;;;;;1791184;79;26714;-80
2022/10/14 09:13:30;;;;;;;21.23;19.23;;;;;;;;;;1790451;79;26286;-80
2022/10/14 09:16:00;;;;;;;21.47;19.40;;;;;;;;;;1803290;78;26211;-80
2022/10/14 09:18:30;;;;;;;19.20;17.67;;;;;;;;;;1831600;78;27055;-80
2022/10/14 09:20:59;;;;;;;20.23;18.53;;;;;;;;;;1831637;78;26214;-80
2022/10/14 09:23:28;;;;;;;19.53;18.13;;;;;;;;;;1803646;78;26846;-79
2022/10/14 09:25:58;;;;;;;19.03;17.73;;;;;;;;;;1831528;78;26277;-79
2022/10/14 09:28:33;;;;;;;19.47;17.53;;;;;;;;;;1831668;78;26273;-79
2022/10/14 09:31:03;;;;;;;21.37;19.43;;;;;;;;;;1831638;78;26607;-80
2022/10/14 09:33:32;;;;;;;20.70;19.07;;;;;;;;;;1831643;78;26289;-81
2022/10/14 09:36:01;;;;;;;21.47;19.53;;;;;;;;;;1831871;78;26221;-80
2022/10/14 09:38:29;;;;;;;22.13;20.20;;;;;;;;;;1803313;78;26222;-80
2022/10/14 09:41:00;;;;;;;21.77;19.93;;;;;;;;;;1831633;78;26272;-80
2022/10/14 09:43:29;;;;;;;21.20;19.33;;;;;;;;;;1831777;78;26542;-80
2022/10/14 09:46:00;;;;;;;22.13;20.00;;;;;;;;;;1815869;78;26227;-80
2022/10/14 09:48:36;;;;;;;22.40;20.63;;;;;;;;;;1824594;77;26678;-80
2022/10/14 09:51:05;;;;;;;21.37;19.43;;;;;;;;;;1851835;77;26224;-80
2022/10/14 09:53:35;;;;;;;21.03;19.13;;;;;;;;;;1801791;78;26226;-80
2022/10/14 09:56:05;;;;;;;21.63;19.93;;;;;;;;;;1803633;78;26295;-80
2022/10/14 09:58:35;;;;;;;20.80;19.10;;;;;;;;;;1803511;78;26221;-80
2022/10/14 10:01:04;;;;;;;21.80;19.67;;;;;;;;;;1779611;78;26223;-80
2022/10/14 10:03:34;;;;;;;21.60;19.63;;;;;;;;;;1831712;78;26241;-80
2022/10/14 10:06:05;;;;;;;21.33;19.73;;;;;;;;;;1831740;78;26218;-80
2022/10/14 10:08:35;;;;;;;21.00;19.30;;;;;;;;;;1831794;78;26892;-80
2022/10/14 10:11:05;;;;;;;22.37;20.53;;;;;;;;;;1831753;78;26260;-79
2022/10/14 10:13:37;;;;;;;21.97;20.13;;;;;;;;;;1803008;78;26738;-79
2022/10/14 10:16:06;;;;;;;22.70;20.57;;;;;;;;;;1831642;78;26295;-80
2022/10/14 10:18:35;;;;;;;23.17;21.43;;;;;;;;;;1803742;78;26214;-80
2022/10/14 10:21:06;;;;;;;23.77;21.90;;;;;;;;;;1832037;78;26219;-79
2022/10/14 10:23:36;;;;;;;25.47;23.20;;;;;;;;;;1831717;78;26234;-80
2022/10/14 10:26:19;;;;;;;24.57;22.67;;;;;;;;;;1831482;78;26794;-80
2022/10/14 10:28:49;;;;;;;25.33;22.93;;;;;;;;;;1831660;78;27095;-80
2022/10/14 10:31:23;;;;;;;24.87;22.77;;;;;;;;;;1831652;78;27186;-80
2022/10/14 10:33:54;;;;;;;23.93;21.90;;;;;;;;;;1820953;78;26235;-80
2022/10/14 10:36:25;;;;;;;22.93;21.13;;;;;;;;;;1765698;79;26697;-80
2022/10/14 10:38:59;;;;;;;24.40;22.30;;;;;;;;;;1831976;78;26217;-80
2022/10/14 10:41:31;;;;;;;23.70;21.60;;;;;;;;;;1831592;78;26745;-74
2022/10/14 10:44:05;;;;;;;24.77;22.57;;;;;;;;;;1831036;77;27494;-80
2022/10/14 10:46:53;;;;;;;23.27;21.47;;;;;;;;;;1818402;78;26756;-79
2022/10/14 10:49:25;;;;;;;23.43;21.60;;;;;;;;;;1829248;78;26297;-80
2022/10/14 10:51:55;;;;;;;24.13;22.13;;;;;;;;;;1818888;77;26412;-80
2022/10/14 10:54:30;;;;;;;23.70;21.77;;;;;;;;;;1822464;77;26242;-80
2022/10/14 10:57:00;;;;;;;23.80;21.67;;;;;;;;;;1855300;77;26306;-80
2022/10/14 10:59:34;;;;;;;23.23;21.17;;;;;;;;;;1855679;77;26221;-79
2022/10/14 11:02:09;;;;;;;24.20;22.07;;;;;;;;;;1855448;77;26303;-79
2022/10/14 11:04:41;;;;;;;24.03;21.77;;;;;;;;;;1794963;77;26824;-79
2022/10/14 11:12:48;;;;;;;23.10;21.30;;;;;;;;;;1831824;78;27050;-80
2022/10/14 11:15:22;;;;;;;24.30;22.33;;;;;;;;;;1803180;78;26319;-77
2022/10/14 11:17:54;;;;;;;23.03;21.27;;;;;;;;;;1821142;77;26232;-77
2022/10/14 11:20:26;;;;;;;22.67;20.77;;;;;;;;;;1819816;78;26215;-76
2022/10/14 11:22:59;;;;;;;22.40;20.70;;;;;;;;;;1786402;79;26266;-77
2022/10/14 11:25:32;;;;;;;23.13;21.17;;;;;;;;;;1819499;78;26336;-77
2022/10/14 11:28:03;;;;;;;23.10;21.17;;;;;;;;;;1831688;77;26852;-77
2022/10/14 11:30:35;;;;;;;22.47;20.63;;;;;;;;;;1851843;76;27062;-77
2022/10/14 11:33:08;;;;;;;22.00;20.47;;;;;;;;;;1789424;79;26238;-77
2022/10/14 11:35:39;;;;;;;22.33;20.67;;;;;;;;;;1832023;77;27108;-77
2022/10/14 11:38:12;;;;;;;22.83;20.97;;;;;;;;;;1778426;78;26288;-76
2022/10/14 11:40:42;;;;;;;21.47;19.87;;;;;;;;;;1779905;78;26289;-77
2022/10/14 11:43:15;;;;;;;21.03;19.33;;;;;;;;;;1821000;77;26763;-76
2022/10/14 11:45:46;;;;;;;15.97;14.97;;;;;;;;;;1778632;78;26227;-76
2022/10/14 11:48:19;;;;;;;12.03;11.30;;;;;;;;;;1804066;78;26215;-76
2022/10/14 11:50:50;;;;;;;11.30;10.80;;;;;;;;;;1803144;78;26250;-76
2022/10/14 11:53:21;;;;;;;12.47;11.87;;;;;;;;;;1803583;78;26233;-76
2022/10/14 11:55:51;;;;;;;12.70;12.10;;;;;;;;;;1803585;78;26214;-76
2022/10/14 11:58:22;;;;;;;12.57;12.07;;;;;;;;;;1821299;78;26222;-77
2022/10/14 12:00:52;;;;;;;12.87;12.27;;;;;;;;;;1819682;79;26331;-77
2022/10/14 12:03:23;;;;;;;12.77;12.17;;;;;;;;;;1831746;78;26222;-80
2022/10/14 12:05:54;;;;;;;14.00;13.20;;;;;;;;;;1831950;78;26214;-80
2022/10/14 12:08:24;;;;;;;13.53;12.93;;;;;;;;;;1803414;78;26265;-80
2022/10/14 12:10:55;;;;;;;13.67;12.97;;;;;;;;;;1831807;78;26687;-79
2022/10/14 12:13:26;;;;;;;13.57;12.97;;;;;;;;;;1832051;78;26677;-79
2022/10/14 12:15:56;;;;;;;13.30;12.57;;;;;;;;;;1831734;78;26297;-79
2022/10/14 12:18:31;;;;;;;8.90;8.40;;;;;;;;;;1832112;78;26286;-79
2022/10/14 12:21:01;;;;;;;11.03;10.43;;;;;;;;;;1819813;78;26212;-79
2022/10/14 12:23:32;;;;;;;11.97;11.20;;;;;;;;;;1801292;78;26238;-80
2022/10/14 12:26:03;;;;;;;12.40;11.80;;;;;;;;;;1831747;78;26752;-79
2022/10/14 12:28:34;;;;;;;13.27;12.57;;;;;;;;;;1831730;78;26277;-80
2022/10/14 12:31:21;;;;;;;12.67;12.07;;;;;;;;;;1802744;78;26222;-80
2022/10/14 12:34:16;;;;;;;12.93;12.30;;;;;;;;;;1831806;78;26783;-79
2022/10/14 12:36:49;;;;;;;10.87;10.47;;;;;;;;;;1766815;79;26990;-80
2022/10/14 12:39:32;;;;;;;11.20;10.70;;;;;;;;;;1832012;78;26817;-79
2022/10/14 12:42:03;;;;;;;11.87;11.37;;;;;;;;;;1831777;78;26220;-79
2022/10/14 12:44:37;;;;;;;12.60;12.10;;;;;;;;;;1831895;78;26240;-79
2022/10/14 12:47:05;;;;;;;11.60;11.10;;;;;;;;;;1803326;78;26802;-80
2022/10/14 12:49:35;;;;;;;12.00;11.50;;;;;;;;;;1831689;78;26755;-79
2022/10/14 12:52:06;;;;;;;12.17;11.77;;;;;;;;;;1831689;78;26213;-79
2022/10/14 12:54:35;;;;;;;11.03;10.63;;;;;;;;;;1803848;78;27184;-80
2022/10/14 12:57:05;;;;;;;11.87;11.47;;;;;;;;;;1803161;78;26219;-80
2022/10/14 12:59:35;;;;;;;11.20;10.80;;;;;;;;;;1831766;78;27037;-81
2022/10/14 13:02:04;;;;;;;10.87;10.40;;;;;;;;;;1831769;78;26559;-79
2022/10/14 13:04:33;;;;;;;10.43;10.03;;;;;;;;;;1803139;78;26241;-79
2022/10/14 13:07:30;;;;;;;10.60;10.20;;;;;;;;;;1803919;78;26869;-80
2022/10/14 13:09:59;;;;;;;9.20;8.90;;;;;;;;;;1803501;78;26991;-80
2022/10/14 13:12:47;;;;;;;10.30;9.90;;;;;;;;;;1815903;79;26283;-80
2022/10/14 13:15:33;;;;;;;11.07;10.63;;;;;;;;;;1803529;78;26216;-79
2022/10/14 13:18:23;;;;;;;9.30;9.00;;;;;;;;;;1803414;78;26568;-79
2022/10/14 13:20:52;;;;;;;10.93;10.53;;;;;;;;;;1802929;78;26228;-80
2022/10/14 13:23:30;;;;;;;10.53;10.20;;;;;;;;;;1831870;78;26229;-79
2022/10/14 13:26:00;;;;;;;10.20;9.80;;;;;;;;;;1831784;78;24172;-79
2022/10/14 13:28:33;;;;;;;10.80;10.50;;;;;;;;;;1831081;77;26276;-81
2022/10/14 13:31:05;;;;;;;10.20;9.80;;;;;;;;;;1832047;78;24160;-80
2022/10/14 13:33:37;;;;;;;10.27;9.87;;;;;;;;;;1831951;78;24932;-80
2022/10/14 13:36:11;;;;;;;10.87;10.47;;;;;;;;;;1831856;78;24257;-80
2022/10/14 13:38:42;;;;;;;11.07;10.67;;;;;;;;;;1831933;78;24136;-79
2022/10/14 13:41:13;;;;;;;9.73;9.43;;;;;;;;;;1831900;78;24215;-80
2022/10/14 13:43:43;;;;;;;10.60;10.20;;;;;;;;;;1832041;78;24165;-80
2022/10/14 13:46:14;;;;;;;10.87;10.47;;;;;;;;;;1831791;78;27094;-80
2022/10/14 13:48:45;;;;;;;11.40;10.90;;;;;;;;;;1832009;78;24169;-80
2022/10/14 13:51:20;;;;;;;11.00;10.60;;;;;;;;;;1803440;78;24529;-82
2022/10/14 13:53:52;;;;;;;10.37;9.93;;;;;;;;;;1821141;77;24226;-80
2022/10/14 13:56:23;;;;;;;11.30;10.90;;;;;;;;;;1819570;79;24169;-82
2022/10/14 13:58:52;;;;;;;11.33;10.73;;;;;;;;;;1803373;78;24156;-82
2022/10/14 14:01:23;;;;;;;11.07;10.67;;;;;;;;;;1831540;78;26291;-80
2022/10/14 14:03:54;;;;;;;11.80;11.20;;;;;;;;;;1780138;78;24164;-79
2022/10/14 14:06:23;;;;;;;12.43;11.93;;;;;;;;;;1831740;78;26222;-80
2022/10/14 14:08:53;;;;;;;11.13;10.63;;;;;;;;;;1803402;78;26595;-80
2022/10/14 14:11:23;;;;;;;11.37;10.90;;;;;;;;;;1803716;78;24163;-80
2022/10/14 14:13:56;;;;;;;12.23;11.63;;;;;;;;;;1831950;78;26327;-81
2022/10/14 14:16:26;;;;;;;12.00;11.50;;;;;;;;;;1803267;78;26641;-79
2022/10/14 14:18:55;;;;;;;11.07;10.47;;;;;;;;;;1832114;78;26217;-80
2022/10/14 14:21:24;;;;;;;11.67;10.90;;;;;;;;;;1791056;79;26241;-80
2022/10/14 14:23:54;;;;;;;11.93;11.23;;;;;;;;;;1795382;77;26281;-79
2022/10/14 14:26:26;;;;;;;11.97;11.37;;;;;;;;;;1831773;78;26212;-81
2022/10/14 14:28:57;;;;;;;12.80;12.03;;;;;;;;;;1803371;78;26337;-81
2022/10/14 14:31:27;;;;;;;11.13;10.60;;;;;;;;;;1816040;78;26310;-80
2022/10/14 14:33:59;;;;;;;11.60;11.00;;;;;;;;;;1831946;78;24227;-80
2022/10/14 14:36:29;;;;;;;12.60;11.87;;;;;;;;;;1831757;78;26274;-80
2022/10/14 14:38:58;;;;;;;13.23;12.20;;;;;;;;;;1790069;79;26217;-73
2022/10/14 14:41:27;;;;;;;13.10;12.20;;;;;;;;;;1831944;78;27174;-73
2022/10/14 14:43:57;;;;;;;12.57;11.70;;;;;;;;;;1831760;78;26293;-73